sensor_id;sensor_type;location;lat;lon;timestamp;P1;durP1;ratioP1;P2;durP2;ratioP2
9098;SDS011;4585;51.414;6.776;2022-07-06T00:01:20;1.93;;;1.60;;
9098;SDS011;4585;51.414;6.776;2022-07-06T00:03:52;1.50;;;1.40;;
9098;SDS011;4585;51.414;6.776;2022-07-06T00:06:19;2.60;;;1.60;;
9098;SDS011;4585;51.414;6.776;2022-07-06T00:08:48;1.80;;;1.43;;
9098;SDS011;4585;51.414;6.776;2022-07-06T00:11:20;1.97;;;1.40;;
9098;SDS011;4585;51.414;6.776;2022-07-06T00:13:46;2.53;;;1.30;;
9098;SDS011;4585;51.414;6.776;2022-07-06T00:16:15;1.20;;;1.10;;
9098;SDS011;4585;51.414;6.776;2022-07-06T00:18:41;2.33;;;1.30;;
9098;SDS011;4585;51.414;6.776;2022-07-06T00:21:13;1.93;;;1.50;;
9098;SDS011;4585;51.414;6.776;2022-07-06T00:23:39;3.73;;;1.50;;
9098;SDS011;4585;51.414;6.776;2022-07-06T00:26:10;2.77;;;1.40;;
9098;SDS011;4585;51.414;6.776;2022-07-06T00:28:36;3.53;;;1.53;;
9098;SDS011;4585;51.414;6.776;2022-07-06T00:31:02;3.83;;;1.40;;
9098;SDS011;4585;51.414;6.776;2022-07-06T00:33:34;3.33;;;1.30;;
9098;SDS011;4585;51.414;6.776;2022-07-06T00:36:03;3.27;;;1.40;;
9098;SDS011;4585;51.414;6.776;2022-07-06T00:38:29;1.70;;;1.30;;
9098;SDS011;4585;51.414;6.776;2022-07-06T00:41:03;2.53;;;1.63;;
9098;SDS011;4585;51.414;6.776;2022-07-06T00:46:17;2.70;;;1.40;;
9098;SDS011;4585;51.414;6.776;2022-07-06T00:48:53;1.43;;;1.33;;
9098;SDS011;4585;51.414;6.776;2022-07-06T00:51:22;1.87;;;1.50;;
9098;SDS011;4585;51.414;6.776;2022-07-06T00:53:55;5.33;;;1.53;;
9098;SDS011;4585;51.414;6.776;2022-07-06T00:56:28;3.77;;;1.80;;
9098;SDS011;4585;51.414;6.776;2022-07-06T00:58:58;1.90;;;1.60;;
9098;SDS011;4585;51.414;6.776;2022-07-06T01:01:28;1.80;;;1.53;;
9098;SDS011;4585;51.414;6.776;2022-07-06T01:03:55;2.37;;;1.70;;
9098;SDS011;4585;51.414;6.776;2022-07-06T01:06:24;2.77;;;1.60;;
9098;SDS011;4585;51.414;6.776;2022-07-06T01:08:50;2.00;;;1.80;;
9098;SDS011;4585;51.414;6.776;2022-07-06T01:11:17;3.83;;;1.90;;
9098;SDS011;4585;51.414;6.776;2022-07-06T01:13:47;2.20;;;1.83;;
9098;SDS011;4585;51.414;6.776;2022-07-06T01:16:19;4.20;;;1.70;;
9098;SDS011;4585;51.414;6.776;2022-07-06T01:18:45;4.93;;;1.67;;
9098;SDS011;4585;51.414;6.776;2022-07-06T01:21:13;2.20;;;1.90;;
9098;SDS011;4585;51.414;6.776;2022-07-06T01:23:43;2.40;;;1.87;;
9098;SDS011;4585;51.414;6.776;2022-07-06T01:26:14;3.30;;;2.17;;
9098;SDS011;4585;51.414;6.776;2022-07-06T01:28:47;3.27;;;2.10;;
9098;SDS011;4585;51.414;6.776;2022-07-06T01:31:19;2.77;;;2.10;;
9098;SDS011;4585;51.414;6.776;2022-07-06T01:33:48;3.90;;;1.97;;
9098;SDS011;4585;51.414;6.776;2022-07-06T01:36:18;6.30;;;2.27;;
9098;SDS011;4585;51.414;6.776;2022-07-06T01:38:48;2.90;;;2.30;;
9098;SDS011;4585;51.414;6.776;2022-07-06T01:41:18;2.37;;;2.17;;
9098;SDS011;4585;51.414;6.776;2022-07-06T01:43:48;4.63;;;2.40;;
9098;SDS011;4585;51.414;6.776;2022-07-06T01:46:17;4.37;;;2.37;;
9098;SDS011;4585;51.414;6.776;2022-07-06T01:48:44;2.63;;;2.30;;
9098;SDS011;4585;51.414;6.776;2022-07-06T01:51:10;5.73;;;2.60;;
9098;SDS011;4585;51.414;6.776;2022-07-06T01:53:37;5.40;;;2.63;;
9098;SDS011;4585;51.414;6.776;2022-07-06T01:56:09;3.40;;;2.53;;
9098;SDS011;4585;51.414;6.776;2022-07-06T01:58:39;5.13;;;2.33;;
9098;SDS011;4585;51.414;6.776;2022-07-06T02:01:12;2.90;;;2.60;;
9098;SDS011;4585;51.414;6.776;2022-07-06T02:03:40;5.27;;;2.57;;
9098;SDS011;4585;51.414;6.776;2022-07-06T02:06:06;2.80;;;2.40;;
9098;SDS011;4585;51.414;6.776;2022-07-06T02:08:33;2.60;;;2.07;;
9098;SDS011;4585;51.414;6.776;2022-07-06T02:10:59;3.93;;;2.33;;
9098;SDS011;4585;51.414;6.776;2022-07-06T02:13:29;6.70;;;2.50;;
9098;SDS011;4585;51.414;6.776;2022-07-06T02:15:55;5.50;;;2.77;;
9098;SDS011;4585;51.414;6.776;2022-07-06T02:18:21;3.70;;;2.30;;
9098;SDS011;4585;51.414;6.776;2022-07-06T02:20:50;7.07;;;2.80;;
9098;SDS011;4585;51.414;6.776;2022-07-06T02:23:22;3.63;;;2.57;;
9098;SDS011;4585;51.414;6.776;2022-07-06T02:25:48;2.50;;;2.20;;
9098;SDS011;4585;51.414;6.776;2022-07-06T02:28:20;3.70;;;2.07;;
9098;SDS011;4585;51.414;6.776;2022-07-06T02:31:09;5.20;;;2.50;;
9098;SDS011;4585;51.414;6.776;2022-07-06T02:33:38;5.80;;;2.20;;
9098;SDS011;4585;51.414;6.776;2022-07-06T02:36:03;4.50;;;2.03;;
9098;SDS011;4585;51.414;6.776;2022-07-06T02:38:29;3.00;;;2.37;;
9098;SDS011;4585;51.414;6.776;2022-07-06T02:40:55;4.63;;;2.60;;
9098;SDS011;4585;51.414;6.776;2022-07-06T02:43:21;5.37;;;2.67;;
9098;SDS011;4585;51.414;6.776;2022-07-06T02:45:47;2.97;;;2.20;;
9098;SDS011;4585;51.414;6.776;2022-07-06T02:48:12;4.70;;;2.30;;
9098;SDS011;4585;51.414;6.776;2022-07-06T02:50:38;3.50;;;2.27;;
9098;SDS011;4585;51.414;6.776;2022-07-06T02:53:04;3.43;;;2.10;;
9098;SDS011;4585;51.414;6.776;2022-07-06T02:55:30;2.63;;;2.17;;
9098;SDS011;4585;51.414;6.776;2022-07-06T02:57:55;6.53;;;2.40;;
9098;SDS011;4585;51.414;6.776;2022-07-06T03:00:21;4.13;;;2.47;;
9098;SDS011;4585;51.414;6.776;2022-07-06T03:02:47;6.00;;;2.30;;
9098;SDS011;4585;51.414;6.776;2022-07-06T03:05:12;2.87;;;2.57;;
9098;SDS011;4585;51.414;6.776;2022-07-06T03:07:38;3.70;;;2.60;;
9098;SDS011;4585;51.414;6.776;2022-07-06T03:10:04;6.00;;;2.67;;
9098;SDS011;4585;51.414;6.776;2022-07-06T03:12:29;3.73;;;2.90;;
9098;SDS011;4585;51.414;6.776;2022-07-06T03:14:55;3.40;;;2.77;;
9098;SDS011;4585;51.414;6.776;2022-07-06T03:17:21;4.57;;;2.80;;
9098;SDS011;4585;51.414;6.776;2022-07-06T03:19:47;8.87;;;2.80;;
9098;SDS011;4585;51.414;6.776;2022-07-06T03:22:12;7.10;;;2.93;;
9098;SDS011;4585;51.414;6.776;2022-07-06T03:24:38;4.87;;;3.27;;
9098;SDS011;4585;51.414;6.776;2022-07-06T03:27:04;3.63;;;2.40;;
9098;SDS011;4585;51.414;6.776;2022-07-06T03:29:30;3.53;;;3.10;;
9098;SDS011;4585;51.414;6.776;2022-07-06T03:31:55;3.43;;;2.90;;
9098;SDS011;4585;51.414;6.776;2022-07-06T03:34:21;3.87;;;2.63;;
9098;SDS011;4585;51.414;6.776;2022-07-06T03:36:47;4.50;;;3.03;;
9098;SDS011;4585;51.414;6.776;2022-07-06T03:39:12;4.47;;;3.00;;
9098;SDS011;4585;51.414;6.776;2022-07-06T03:41:38;5.77;;;3.20;;
9098;SDS011;4585;51.414;6.776;2022-07-06T03:44:04;5.70;;;3.17;;
9098;SDS011;4585;51.414;6.776;2022-07-06T03:46:29;3.40;;;3.00;;
9098;SDS011;4585;51.414;6.776;2022-07-06T03:48:55;4.10;;;2.83;;
9098;SDS011;4585;51.414;6.776;2022-07-06T03:51:21;4.57;;;3.23;;
9098;SDS011;4585;51.414;6.776;2022-07-06T03:53:47;5.13;;;3.00;;
9098;SDS011;4585;51.414;6.776;2022-07-06T03:56:12;5.57;;;3.03;;
9098;SDS011;4585;51.414;6.776;2022-07-06T03:58:56;6.73;;;2.80;;
9098;SDS011;4585;51.414;6.776;2022-07-06T04:01:23;3.27;;;2.70;;
9098;SDS011;4585;51.414;6.776;2022-07-06T04:03:49;4.80;;;3.37;;
9098;SDS011;4585;51.414;6.776;2022-07-06T04:06:15;8.33;;;3.27;;
9098;SDS011;4585;51.414;6.776;2022-07-06T04:08:41;6.67;;;3.03;;
9098;SDS011;4585;51.414;6.776;2022-07-06T04:11:07;6.07;;;2.77;;
9098;SDS011;4585;51.414;6.776;2022-07-06T04:13:32;3.33;;;2.80;;
9098;SDS011;4585;51.414;6.776;2022-07-06T04:15:58;7.33;;;3.00;;
9098;SDS011;4585;51.414;6.776;2022-07-06T04:18:24;4.13;;;3.00;;
9098;SDS011;4585;51.414;6.776;2022-07-06T04:20:50;4.37;;;2.90;;
9098;SDS011;4585;51.414;6.776;2022-07-06T04:23:16;7.03;;;3.00;;
9098;SDS011;4585;51.414;6.776;2022-07-06T04:25:42;5.10;;;2.73;;
9098;SDS011;4585;51.414;6.776;2022-07-06T04:28:08;8.43;;;3.20;;
9098;SDS011;4585;51.414;6.776;2022-07-06T04:30:34;5.47;;;3.23;;
9098;SDS011;4585;51.414;6.776;2022-07-06T04:32:59;8.40;;;3.40;;
9098;SDS011;4585;51.414;6.776;2022-07-06T04:35:25;8.33;;;3.40;;
9098;SDS011;4585;51.414;6.776;2022-07-06T04:37:51;6.13;;;3.43;;
9098;SDS011;4585;51.414;6.776;2022-07-06T04:40:17;5.57;;;3.37;;
9098;SDS011;4585;51.414;6.776;2022-07-06T04:42:42;6.33;;;2.90;;
9098;SDS011;4585;51.414;6.776;2022-07-06T04:45:08;5.97;;;2.80;;
9098;SDS011;4585;51.414;6.776;2022-07-06T04:47:34;8.37;;;3.50;;
9098;SDS011;4585;51.414;6.776;2022-07-06T04:50:01;3.80;;;3.03;;
9098;SDS011;4585;51.414;6.776;2022-07-06T04:52:27;5.07;;;3.17;;
9098;SDS011;4585;51.414;6.776;2022-07-06T04:54:56;6.57;;;3.57;;
9098;SDS011;4585;51.414;6.776;2022-07-06T04:57:22;4.03;;;2.90;;
9098;SDS011;4585;51.414;6.776;2022-07-06T04:59:50;7.93;;;3.07;;
9098;SDS011;4585;51.414;6.776;2022-07-06T05:02:16;7.33;;;3.17;;
9098;SDS011;4585;51.414;6.776;2022-07-06T05:04:42;8.27;;;3.37;;
9098;SDS011;4585;51.414;6.776;2022-07-06T05:07:07;4.03;;;3.03;;
9098;SDS011;4585;51.414;6.776;2022-07-06T05:09:33;3.87;;;2.80;;
9098;SDS011;4585;51.414;6.776;2022-07-06T05:11:59;8.47;;;3.37;;
9098;SDS011;4585;51.414;6.776;2022-07-06T05:14:24;6.03;;;3.07;;
9098;SDS011;4585;51.414;6.776;2022-07-06T05:16:50;3.77;;;2.77;;
9098;SDS011;4585;51.414;6.776;2022-07-06T05:19:16;6.30;;;3.67;;
9098;SDS011;4585;51.414;6.776;2022-07-06T05:21:41;7.73;;;3.27;;
9098;SDS011;4585;51.414;6.776;2022-07-06T05:24:07;6.97;;;3.00;;
9098;SDS011;4585;51.414;6.776;2022-07-06T05:26:33;6.73;;;3.17;;
9098;SDS011;4585;51.414;6.776;2022-07-06T05:28:58;4.30;;;3.10;;
9098;SDS011;4585;51.414;6.776;2022-07-06T05:31:24;3.90;;;2.60;;
9098;SDS011;4585;51.414;6.776;2022-07-06T05:33:50;6.87;;;3.00;;
9098;SDS011;4585;51.414;6.776;2022-07-06T05:36:16;4.53;;;3.00;;
9098;SDS011;4585;51.414;6.776;2022-07-06T05:38:42;4.07;;;2.80;;
9098;SDS011;4585;51.414;6.776;2022-07-06T05:41:07;4.90;;;2.60;;
9098;SDS011;4585;51.414;6.776;2022-07-06T05:43:35;5.50;;;2.70;;
9098;SDS011;4585;51.414;6.776;2022-07-06T05:46:01;5.50;;;2.90;;
9098;SDS011;4585;51.414;6.776;2022-07-06T05:48:27;4.47;;;2.80;;
9098;SDS011;4585;51.414;6.776;2022-07-06T05:51:11;7.37;;;2.90;;
9098;SDS011;4585;51.414;6.776;2022-07-06T05:53:37;3.23;;;2.73;;
9098;SDS011;4585;51.414;6.776;2022-07-06T05:56:03;6.57;;;3.20;;
9098;SDS011;4585;51.414;6.776;2022-07-06T05:58:28;4.33;;;2.60;;
9098;SDS011;4585;51.414;6.776;2022-07-06T06:00:54;5.90;;;3.03;;
9098;SDS011;4585;51.414;6.776;2022-07-06T06:03:20;4.47;;;2.83;;
9098;SDS011;4585;51.414;6.776;2022-07-06T06:05:45;6.60;;;2.70;;
9098;SDS011;4585;51.414;6.776;2022-07-06T06:08:11;7.47;;;2.40;;
9098;SDS011;4585;51.414;6.776;2022-07-06T06:10:37;9.83;;;2.30;;
9098;SDS011;4585;51.414;6.776;2022-07-06T06:13:02;4.27;;;2.17;;
9098;SDS011;4585;51.414;6.776;2022-07-06T06:15:28;3.97;;;2.13;;
9098;SDS011;4585;51.414;6.776;2022-07-06T06:17:54;4.17;;;2.00;;
9098;SDS011;4585;51.414;6.776;2022-07-06T06:20:19;5.33;;;2.40;;
9098;SDS011;4585;51.414;6.776;2022-07-06T06:22:49;4.37;;;2.00;;
9098;SDS011;4585;51.414;6.776;2022-07-06T06:25:17;6.30;;;2.17;;
9098;SDS011;4585;51.414;6.776;2022-07-06T06:27:45;6.43;;;2.20;;
9098;SDS011;4585;51.414;6.776;2022-07-06T06:30:11;4.23;;;2.10;;
9098;SDS011;4585;51.414;6.776;2022-07-06T06:32:37;6.90;;;2.80;;
9098;SDS011;4585;51.414;6.776;2022-07-06T06:35:04;2.30;;;1.77;;
9098;SDS011;4585;51.414;6.776;2022-07-06T06:37:30;5.87;;;2.00;;
9098;SDS011;4585;51.414;6.776;2022-07-06T06:39:55;3.03;;;1.97;;
9098;SDS011;4585;51.414;6.776;2022-07-06T06:42:21;4.00;;;1.97;;
9098;SDS011;4585;51.414;6.776;2022-07-06T06:44:47;4.20;;;1.83;;
9098;SDS011;4585;51.414;6.776;2022-07-06T06:47:12;4.07;;;1.63;;
9098;SDS011;4585;51.414;6.776;2022-07-06T06:49:38;4.63;;;1.87;;
9098;SDS011;4585;51.414;6.776;2022-07-06T06:52:04;4.27;;;1.83;;
9098;SDS011;4585;51.414;6.776;2022-07-06T06:54:30;3.70;;;1.80;;
9098;SDS011;4585;51.414;6.776;2022-07-06T06:56:55;6.30;;;1.60;;
9098;SDS011;4585;51.414;6.776;2022-07-06T06:59:21;2.97;;;1.60;;
9098;SDS011;4585;51.414;6.776;2022-07-06T07:01:47;2.17;;;1.40;;
9098;SDS011;4585;51.414;6.776;2022-07-06T07:04:12;4.13;;;1.47;;
9098;SDS011;4585;51.414;6.776;2022-07-06T07:06:38;2.73;;;1.30;;
9098;SDS011;4585;51.414;6.776;2022-07-06T07:09:04;4.93;;;1.33;;
9098;SDS011;4585;51.414;6.776;2022-07-06T07:11:30;3.17;;;1.30;;
9098;SDS011;4585;51.414;6.776;2022-07-06T07:13:56;2.00;;;1.30;;
9098;SDS011;4585;51.414;6.776;2022-07-06T07:16:22;2.97;;;1.37;;
9098;SDS011;4585;51.414;6.776;2022-07-06T07:18:49;3.07;;;1.27;;
9098;SDS011;4585;51.414;6.776;2022-07-06T07:21:15;6.00;;;1.50;;
9098;SDS011;4585;51.414;6.776;2022-07-06T07:23:41;5.97;;;1.33;;
9098;SDS011;4585;51.414;6.776;2022-07-06T07:26:07;4.13;;;1.30;;
9098;SDS011;4585;51.414;6.776;2022-07-06T07:28:33;5.60;;;1.13;;
9098;SDS011;4585;51.414;6.776;2022-07-06T07:30:58;2.77;;;1.30;;
9098;SDS011;4585;51.414;6.776;2022-07-06T07:33:24;2.97;;;1.30;;
9098;SDS011;4585;51.414;6.776;2022-07-06T07:35:50;2.40;;;1.23;;
9098;SDS011;4585;51.414;6.776;2022-07-06T07:38:15;2.97;;;1.20;;
9098;SDS011;4585;51.414;6.776;2022-07-06T07:40:41;3.53;;;1.10;;
9098;SDS011;4585;51.414;6.776;2022-07-06T07:43:07;2.73;;;1.20;;
9098;SDS011;4585;51.414;6.776;2022-07-06T07:45:32;1.97;;;1.00;;
9098;SDS011;4585;51.414;6.776;2022-07-06T07:47:58;4.37;;;1.00;;
9098;SDS011;4585;51.414;6.776;2022-07-06T07:50:24;2.77;;;1.10;;
9098;SDS011;4585;51.414;6.776;2022-07-06T07:52:51;3.27;;;1.10;;
9098;SDS011;4585;51.414;6.776;2022-07-06T07:55:17;0.90;;;0.90;;
9098;SDS011;4585;51.414;6.776;2022-07-06T07:57:43;5.00;;;1.07;;
9098;SDS011;4585;51.414;6.776;2022-07-06T08:00:09;3.27;;;1.20;;
9098;SDS011;4585;51.414;6.776;2022-07-06T08:02:35;1.00;;;0.80;;
9098;SDS011;4585;51.414;6.776;2022-07-06T08:05:01;1.23;;;1.00;;
9098;SDS011;4585;51.414;6.776;2022-07-06T08:07:29;3.50;;;1.30;;
9098;SDS011;4585;51.414;6.776;2022-07-06T08:09:54;3.53;;;1.00;;
9098;SDS011;4585;51.414;6.776;2022-07-06T08:12:20;1.60;;;1.10;;
9098;SDS011;4585;51.414;6.776;2022-07-06T08:14:46;6.33;;;1.03;;
9098;SDS011;4585;51.414;6.776;2022-07-06T08:17:11;1.63;;;1.20;;
9098;SDS011;4585;51.414;6.776;2022-07-06T08:19:37;1.93;;;1.10;;
9098;SDS011;4585;51.414;6.776;2022-07-06T08:22:03;3.67;;;1.33;;
9098;SDS011;4585;51.414;6.776;2022-07-06T08:24:32;0.73;;;0.70;;
9098;SDS011;4585;51.414;6.776;2022-07-06T08:27:01;1.50;;;0.70;;
9098;SDS011;4585;51.414;6.776;2022-07-06T08:29:28;1.37;;;1.10;;
9098;SDS011;4585;51.414;6.776;2022-07-06T08:31:54;1.17;;;0.90;;
9098;SDS011;4585;51.414;6.776;2022-07-06T08:34:20;2.83;;;1.07;;
9098;SDS011;4585;51.414;6.776;2022-07-06T08:36:46;3.67;;;1.20;;
9098;SDS011;4585;51.414;6.776;2022-07-06T08:39:12;1.77;;;0.83;;
9098;SDS011;4585;51.414;6.776;2022-07-06T08:41:38;2.90;;;0.90;;
9098;SDS011;4585;51.414;6.776;2022-07-06T08:44:07;4.90;;;1.20;;
9098;SDS011;4585;51.414;6.776;2022-07-06T08:46:34;1.70;;;0.93;;
9098;SDS011;4585;51.414;6.776;2022-07-06T08:49:02;1.80;;;1.10;;
9098;SDS011;4585;51.414;6.776;2022-07-06T08:51:30;0.80;;;0.80;;
9098;SDS011;4585;51.414;6.776;2022-07-06T08:53:56;1.37;;;0.73;;
9098;SDS011;4585;51.414;6.776;2022-07-06T08:56:22;1.83;;;1.00;;
9098;SDS011;4585;51.414;6.776;2022-07-06T08:58:49;2.23;;;0.80;;
9098;SDS011;4585;51.414;6.776;2022-07-06T09:01:15;2.03;;;0.80;;
9098;SDS011;4585;51.414;6.776;2022-07-06T09:03:43;1.23;;;0.97;;
9098;SDS011;4585;51.414;6.776;2022-07-06T09:06:10;2.53;;;0.90;;
9098;SDS011;4585;51.414;6.776;2022-07-06T09:08:41;0.73;;;0.70;;
9098;SDS011;4585;51.414;6.776;2022-07-06T09:11:09;1.30;;;1.00;;
9098;SDS011;4585;51.414;6.776;2022-07-06T09:13:35;0.90;;;0.90;;
9098;SDS011;4585;51.414;6.776;2022-07-06T09:16:10;1.73;;;0.90;;
9098;SDS011;4585;51.414;6.776;2022-07-06T09:18:41;4.23;;;1.03;;
9098;SDS011;4585;51.414;6.776;2022-07-06T09:21:09;0.90;;;0.73;;
9098;SDS011;4585;51.414;6.776;2022-07-06T09:23:36;1.60;;;0.80;;
9098;SDS011;4585;51.414;6.776;2022-07-06T09:26:02;1.63;;;0.90;;
9098;SDS011;4585;51.414;6.776;2022-07-06T09:28:42;0.60;;;0.60;;
9098;SDS011;4585;51.414;6.776;2022-07-06T09:31:08;2.00;;;1.00;;
9098;SDS011;4585;51.414;6.776;2022-07-06T09:33:35;2.33;;;0.90;;
9098;SDS011;4585;51.414;6.776;2022-07-06T09:36:01;0.60;;;0.60;;
9098;SDS011;4585;51.414;6.776;2022-07-06T09:38:27;0.70;;;0.60;;
9098;SDS011;4585;51.414;6.776;2022-07-06T09:40:53;0.50;;;0.50;;
9098;SDS011;4585;51.414;6.776;2022-07-06T09:43:23;2.17;;;0.60;;
9098;SDS011;4585;51.414;6.776;2022-07-06T09:45:51;2.17;;;0.80;;
9098;SDS011;4585;51.414;6.776;2022-07-06T09:51:08;1.97;;;1.03;;
9098;SDS011;4585;51.414;6.776;2022-07-06T09:53:34;1.70;;;0.60;;
9098;SDS011;4585;51.414;6.776;2022-07-06T09:56:00;0.50;;;0.50;;
9098;SDS011;4585;51.414;6.776;2022-07-06T09:58:27;2.83;;;0.73;;
9098;SDS011;4585;51.414;6.776;2022-07-06T10:00:53;0.83;;;0.77;;
9098;SDS011;4585;51.414;6.776;2022-07-06T10:03:19;1.37;;;0.70;;
9098;SDS011;4585;51.414;6.776;2022-07-06T10:05:45;2.03;;;0.70;;
9098;SDS011;4585;51.414;6.776;2022-07-06T10:08:13;0.60;;;0.60;;
9098;SDS011;4585;51.414;6.776;2022-07-06T10:10:40;2.07;;;0.70;;
9098;SDS011;4585;51.414;6.776;2022-07-06T10:13:07;0.80;;;0.80;;
9098;SDS011;4585;51.414;6.776;2022-07-06T10:15:34;2.10;;;0.80;;
9098;SDS011;4585;51.414;6.776;2022-07-06T10:18:04;2.83;;;0.80;;
9098;SDS011;4585;51.414;6.776;2022-07-06T10:20:32;0.60;;;0.60;;
9098;SDS011;4585;51.414;6.776;2022-07-06T10:23:02;2.00;;;0.80;;
9098;SDS011;4585;51.414;6.776;2022-07-06T10:25:28;1.30;;;0.67;;
9098;SDS011;4585;51.414;6.776;2022-07-06T10:27:54;2.03;;;0.93;;
9098;SDS011;4585;51.414;6.776;2022-07-06T10:30:22;1.47;;;0.93;;
9098;SDS011;4585;51.414;6.776;2022-07-06T10:32:49;3.00;;;1.00;;
9098;SDS011;4585;51.414;6.776;2022-07-06T10:35:17;0.70;;;0.70;;
9098;SDS011;4585;51.414;6.776;2022-07-06T10:37:44;1.53;;;1.10;;
9098;SDS011;4585;51.414;6.776;2022-07-06T10:40:12;1.10;;;0.63;;
9098;SDS011;4585;51.414;6.776;2022-07-06T10:43:11;2.10;;;0.90;;
9098;SDS011;4585;51.414;6.776;2022-07-06T10:50:41;0.57;;;0.57;;
9098;SDS011;4585;51.414;6.776;2022-07-06T10:53:10;2.27;;;0.80;;
9098;SDS011;4585;51.414;6.776;2022-07-06T10:55:41;1.53;;;1.13;;
9098;SDS011;4585;51.414;6.776;2022-07-06T10:58:12;0.73;;;0.70;;
9098;SDS011;4585;51.414;6.776;2022-07-06T11:00:53;2.10;;;0.90;;
9098;SDS011;4585;51.414;6.776;2022-07-06T11:05:58;3.50;;;1.07;;
9098;SDS011;4585;51.414;6.776;2022-07-06T11:11:15;1.80;;;0.93;;
9098;SDS011;4585;51.414;6.776;2022-07-06T11:16:33;1.53;;;0.90;;
9098;SDS011;4585;51.414;6.776;2022-07-06T11:19:11;1.30;;;0.73;;
9098;SDS011;4585;51.414;6.776;2022-07-06T11:24:15;2.73;;;0.97;;
9098;SDS011;4585;51.414;6.776;2022-07-06T11:26:44;2.23;;;0.90;;
9098;SDS011;4585;51.414;6.776;2022-07-06T11:29:11;1.63;;;0.87;;
9098;SDS011;4585;51.414;6.776;2022-07-06T11:31:39;1.30;;;1.00;;
9098;SDS011;4585;51.414;6.776;2022-07-06T11:34:06;2.07;;;1.00;;
9098;SDS011;4585;51.414;6.776;2022-07-06T11:36:34;0.90;;;0.90;;
9098;SDS011;4585;51.414;6.776;2022-07-06T11:39:00;7.37;;;1.03;;
9098;SDS011;4585;51.414;6.776;2022-07-06T11:41:26;2.07;;;1.33;;
9098;SDS011;4585;51.414;6.776;2022-07-06T11:43:51;0.73;;;0.70;;
9098;SDS011;4585;51.414;6.776;2022-07-06T11:46:27;0.93;;;0.83;;
9098;SDS011;4585;51.414;6.776;2022-07-06T11:49:00;4.80;;;1.00;;
9098;SDS011;4585;51.414;6.776;2022-07-06T11:51:28;2.63;;;0.90;;
9098;SDS011;4585;51.414;6.776;2022-07-06T11:54:00;2.53;;;0.87;;
9098;SDS011;4585;51.414;6.776;2022-07-06T11:56:32;2.07;;;0.90;;
9098;SDS011;4585;51.414;6.776;2022-07-06T11:58:58;1.43;;;1.00;;
9098;SDS011;4585;51.414;6.776;2022-07-06T12:01:25;1.60;;;0.90;;
9098;SDS011;4585;51.414;6.776;2022-07-06T12:03:53;1.00;;;0.90;;
9098;SDS011;4585;51.414;6.776;2022-07-06T12:06:26;0.87;;;0.80;;
9098;SDS011;4585;51.414;6.776;2022-07-06T12:08:59;2.13;;;1.03;;
9098;SDS011;4585;51.414;6.776;2022-07-06T12:11:32;3.23;;;1.00;;
9098;SDS011;4585;51.414;6.776;2022-07-06T12:14:01;1.33;;;0.90;;
9098;SDS011;4585;51.414;6.776;2022-07-06T12:16:37;1.63;;;0.80;;
9098;SDS011;4585;51.414;6.776;2022-07-06T12:19:03;0.60;;;0.60;;
9098;SDS011;4585;51.414;6.776;2022-07-06T12:21:29;3.60;;;1.07;;
9098;SDS011;4585;51.414;6.776;2022-07-06T12:23:56;1.30;;;0.77;;
9098;SDS011;4585;51.414;6.776;2022-07-06T12:26:22;0.90;;;0.83;;
9098;SDS011;4585;51.414;6.776;2022-07-06T12:29:00;2.70;;;1.00;;
9098;SDS011;4585;51.414;6.776;2022-07-06T12:31:36;4.27;;;1.10;;
9098;SDS011;4585;51.414;6.776;2022-07-06T12:34:05;2.93;;;0.83;;
9098;SDS011;4585;51.414;6.776;2022-07-06T12:36:44;0.67;;;0.67;;
9098;SDS011;4585;51.414;6.776;2022-07-06T12:39:10;0.70;;;0.70;;
9098;SDS011;4585;51.414;6.776;2022-07-06T12:41:41;0.80;;;0.60;;
9098;SDS011;4585;51.414;6.776;2022-07-06T12:44:19;1.03;;;0.90;;
9098;SDS011;4585;51.414;6.776;2022-07-06T12:46:50;1.85;;;0.80;;
9098;SDS011;4585;51.414;6.776;2022-07-06T12:49:26;3.37;;;1.20;;
9098;SDS011;4585;51.414;6.776;2022-07-06T12:51:52;3.57;;;1.17;;
9098;SDS011;4585;51.414;6.776;2022-07-06T12:54:20;2.08;;;0.70;;
9098;SDS011;4585;51.414;6.776;2022-07-06T12:57:41;0.80;;;0.80;;
9098;SDS011;4585;51.414;6.776;2022-07-06T12:59:41;0.90;;;0.80;;
9098;SDS011;4585;51.414;6.776;2022-07-06T13:07:23;2.27;;;1.00;;
9098;SDS011;4585;51.414;6.776;2022-07-06T13:09:49;3.53;;;1.20;;
9098;SDS011;4585;51.414;6.776;2022-07-06T13:12:15;0.80;;;0.73;;
9098;SDS011;4585;51.414;6.776;2022-07-06T13:14:41;4.23;;;1.10;;
9098;SDS011;4585;51.414;6.776;2022-07-06T13:17:06;1.05;;;0.90;;
9098;SDS011;4585;51.414;6.776;2022-07-06T13:19:32;0.93;;;0.80;;
9098;SDS011;4585;51.414;6.776;2022-07-06T13:21:58;1.65;;;1.08;;
9098;SDS011;4585;51.414;6.776;2022-07-06T13:24:24;1.00;;;0.90;;
9098;SDS011;4585;51.414;6.776;2022-07-06T13:26:53;1.30;;;0.82;;
9098;SDS011;4585;51.414;6.776;2022-07-06T13:29:20;0.95;;;0.88;;
9098;SDS011;4585;51.414;6.776;2022-07-06T13:31:45;2.50;;;0.90;;
9098;SDS011;4585;51.414;6.776;2022-07-06T13:34:11;2.45;;;1.20;;
9098;SDS011;4585;51.414;6.776;2022-07-06T13:36:38;1.60;;;0.80;;
9098;SDS011;4585;51.414;6.776;2022-07-06T13:39:04;2.20;;;0.85;;
9098;SDS011;4585;51.414;6.776;2022-07-06T13:41:30;2.50;;;0.90;;
9098;SDS011;4585;51.414;6.776;2022-07-06T13:43:57;0.60;;;0.60;;
9098;SDS011;4585;51.414;6.776;2022-07-06T13:46:23;0.98;;;0.90;;
9098;SDS011;4585;51.414;6.776;2022-07-06T13:48:49;0.80;;;0.80;;
9098;SDS011;4585;51.414;6.776;2022-07-06T13:51:16;3.72;;;0.98;;
9098;SDS011;4585;51.414;6.776;2022-07-06T13:53:41;1.85;;;0.90;;
9098;SDS011;4585;51.414;6.776;2022-07-06T13:56:07;1.75;;;0.82;;
9098;SDS011;4585;51.414;6.776;2022-07-06T13:58:33;0.70;;;0.70;;
9098;SDS011;4585;51.414;6.776;2022-07-06T14:00:59;1.35;;;0.90;;
9098;SDS011;4585;51.414;6.776;2022-07-06T14:03:25;1.70;;;0.80;;
9098;SDS011;4585;51.414;6.776;2022-07-06T14:05:55;4.68;;;0.70;;
9098;SDS011;4585;51.414;6.776;2022-07-06T14:08:21;1.35;;;0.80;;
9098;SDS011;4585;51.414;6.776;2022-07-06T14:10:47;2.40;;;0.85;;
9098;SDS011;4585;51.414;6.776;2022-07-06T14:13:13;1.55;;;0.88;;
9098;SDS011;4585;51.414;6.776;2022-07-06T14:15:39;1.45;;;0.88;;
9098;SDS011;4585;51.414;6.776;2022-07-06T14:18:04;2.55;;;0.90;;
9098;SDS011;4585;51.414;6.776;2022-07-06T14:20:30;2.75;;;1.15;;
9098;SDS011;4585;51.414;6.776;2022-07-06T14:22:56;0.70;;;0.65;;
9098;SDS011;4585;51.414;6.776;2022-07-06T14:25:21;1.45;;;0.70;;
9098;SDS011;4585;51.414;6.776;2022-07-06T14:27:47;1.58;;;1.00;;
9098;SDS011;4585;51.414;6.776;2022-07-06T14:30:13;0.65;;;0.65;;
9098;SDS011;4585;51.414;6.776;2022-07-06T14:32:38;3.80;;;1.55;;
9098;SDS011;4585;51.414;6.776;2022-07-06T14:35:05;2.75;;;1.00;;
9098;SDS011;4585;51.414;6.776;2022-07-06T14:37:30;3.35;;;0.82;;
9098;SDS011;4585;51.414;6.776;2022-07-06T14:39:56;2.22;;;0.88;;
9098;SDS011;4585;51.414;6.776;2022-07-06T14:42:22;5.38;;;1.05;;
9098;SDS011;4585;51.414;6.776;2022-07-06T14:44:47;5.20;;;0.93;;
9098;SDS011;4585;51.414;6.776;2022-07-06T14:47:13;0.82;;;0.60;;
9098;SDS011;4585;51.414;6.776;2022-07-06T14:49:39;0.68;;;0.68;;
9098;SDS011;4585;51.414;6.776;2022-07-06T14:52:05;1.73;;;1.15;;
9098;SDS011;4585;51.414;6.776;2022-07-06T14:54:31;1.40;;;0.85;;
9098;SDS011;4585;51.414;6.776;2022-07-06T14:56:56;1.95;;;0.77;;
9098;SDS011;4585;51.414;6.776;2022-07-06T14:59:22;1.38;;;0.70;;
9098;SDS011;4585;51.414;6.776;2022-07-06T15:01:48;1.75;;;0.80;;
9098;SDS011;4585;51.414;6.776;2022-07-06T15:04:13;3.05;;;0.60;;
9098;SDS011;4585;51.414;6.776;2022-07-06T15:06:39;3.80;;;0.70;;
9098;SDS011;4585;51.414;6.776;2022-07-06T15:09:05;0.80;;;0.60;;
9098;SDS011;4585;51.414;6.776;2022-07-06T15:11:30;2.13;;;0.80;;
9098;SDS011;4585;51.414;6.776;2022-07-06T15:13:56;1.17;;;0.60;;
9098;SDS011;4585;51.414;6.776;2022-07-06T15:16:22;3.30;;;0.90;;
9098;SDS011;4585;51.414;6.776;2022-07-06T15:18:49;2.83;;;0.80;;
9098;SDS011;4585;51.414;6.776;2022-07-06T15:21:15;0.95;;;0.88;;
9098;SDS011;4585;51.414;6.776;2022-07-06T15:23:41;2.05;;;0.88;;
9098;SDS011;4585;51.414;6.776;2022-07-06T15:26:07;1.17;;;0.63;;
9098;SDS011;4585;51.414;6.776;2022-07-06T15:28:33;1.55;;;0.80;;
9098;SDS011;4585;51.414;6.776;2022-07-06T15:30:58;1.33;;;0.90;;
9098;SDS011;4585;51.414;6.776;2022-07-06T15:33:24;1.90;;;0.90;;
9098;SDS011;4585;51.414;6.776;2022-07-06T15:35:49;1.25;;;0.90;;
9098;SDS011;4585;51.414;6.776;2022-07-06T15:38:16;2.92;;;0.70;;
9098;SDS011;4585;51.414;6.776;2022-07-06T15:40:42;1.15;;;0.80;;
9098;SDS011;4585;51.414;6.776;2022-07-06T15:43:13;1.25;;;0.77;;